sensor_id;sensor_type;location;lat;lon;timestamp;pressure;altitude;pressure_sealevel;temperature;humidity
49645;BME280;36494;50.730;-1.932;2023-04-29T00:00:20;101245.25;;;10.90;100.00
49645;BME280;36494;50.730;-1.932;2023-04-29T00:02:46;101240.45;;;10.88;100.00
49645;BME280;36494;50.730;-1.932;2023-04-29T00:05:11;101241.48;;;10.87;100.00
49645;BME280;36494;50.730;-1.932;2023-04-29T00:07:36;101245.05;;;10.80;100.00
49645;BME280;36494;50.730;-1.932;2023-04-29T00:10:01;101245.69;;;10.81;100.00
49645;BME280;36494;50.730;-1.932;2023-04-29T00:12:27;101247.38;;;10.80;100.00
49645;BME280;36494;50.730;-1.932;2023-04-29T00:14:52;101251.70;;;10.78;100.00
49645;BME280;36494;50.730;-1.932;2023-04-29T00:17:17;101252.67;;;10.75;100.00
49645;BME280;36494;50.730;-1.932;2023-04-29T00:19:43;101254.61;;;10.74;100.00
49645;BME280;36494;50.730;-1.932;2023-04-29T00:22:08;101257.43;;;10.72;100.00
49645;BME280;36494;50.730;-1.932;2023-04-29T00:24:34;101252.98;;;10.68;100.00
49645;BME280;36494;50.730;-1.932;2023-04-29T00:26:59;101248.63;;;10.67;100.00
49645;BME280;36494;50.730;-1.932;2023-04-29T00:29:25;101245.71;;;10.62;100.00
49645;BME280;36494;50.730;-1.932;2023-04-29T00:31:50;101242.40;;;10.58;100.00
49645;BME280;36494;50.730;-1.932;2023-04-29T00:34:15;101246.38;;;10.57;100.00
49645;BME280;36494;50.730;-1.932;2023-04-29T00:36:41;101244.23;;;10.54;100.00
49645;BME280;36494;50.730;-1.932;2023-04-29T00:39:06;101245.37;;;10.50;100.00
49645;BME280;36494;50.730;-1.932;2023-04-29T00:41:31;101245.77;;;10.48;100.00
49645;BME280;36494;50.730;-1.932;2023-04-29T00:43:57;101248.80;;;10.44;100.00
49645;BME280;36494;50.730;-1.932;2023-04-29T00:46:22;101247.85;;;10.41;100.00
49645;BME280;36494;50.730;-1.932;2023-04-29T00:48:47;101246.36;;;10.39;100.00
49645;BME280;36494;50.730;-1.932;2023-04-29T00:51:13;101247.84;;;10.37;100.00
49645;BME280;36494;50.730;-1.932;2023-04-29T00:53:38;101249.98;;;10.35;100.00
49645;BME280;36494;50.730;-1.932;2023-04-29T00:56:04;101246.11;;;10.31;100.00
49645;BME280;36494;50.730;-1.932;2023-04-29T00:58:29;101248.57;;;10.27;100.00
49645;BME280;36494;50.730;-1.932;2023-04-29T01:00:54;101246.35;;;10.19;100.00
49645;BME280;36494;50.730;-1.932;2023-04-29T01:03:19;101249.51;;;10.13;100.00
49645;BME280;36494;50.730;-1.932;2023-04-29T01:05:50;101249.90;;;10.15;100.00
49645;BME280;36494;50.730;-1.932;2023-04-29T01:08:18;101250.87;;;10.11;100.00
49645;BME280;36494;50.730;-1.932;2023-04-29T01:10:43;101249.48;;;10.08;100.00
49645;BME280;36494;50.730;-1.932;2023-04-29T01:13:10;101250.23;;;10.10;100.00
49645;BME280;36494;50.730;-1.932;2023-04-29T01:15:31;101247.57;;;10.09;100.00
49645;BME280;36494;50.730;-1.932;2023-04-29T01:17:55;101248.16;;;10.07;100.00
49645;BME280;36494;50.730;-1.932;2023-04-29T01:20:17;101248.15;;;9.99;100.00
49645;BME280;36494;50.730;-1.932;2023-04-29T01:22:42;101250.24;;;10.01;100.00
49645;BME280;36494;50.730;-1.932;2023-04-29T01:25:07;101251.32;;;10.00;100.00
49645;BME280;36494;50.730;-1.932;2023-04-29T01:27:38;101251.86;;;10.01;100.00
49645;BME280;36494;50.730;-1.932;2023-04-29T01:30:02;101252.16;;;9.94;100.00
49645;BME280;36494;50.730;-1.932;2023-04-29T01:32:31;101250.23;;;9.94;100.00
49645;BME280;36494;50.730;-1.932;2023-04-29T01:34:52;101250.97;;;9.95;100.00
49645;BME280;36494;50.730;-1.932;2023-04-29T01:37:18;101253.40;;;9.92;100.00
49645;BME280;36494;50.730;-1.932;2023-04-29T01:39:44;101255.05;;;9.92;100.00
49645;BME280;36494;50.730;-1.932;2023-04-29T01:42:09;101258.23;;;9.87;100.00
49645;BME280;36494;50.730;-1.932;2023-04-29T01:44:32;101256.53;;;9.89;100.00
49645;BME280;36494;50.730;-1.932;2023-04-29T01:46:55;101258.21;;;9.90;100.00
49645;BME280;36494;50.730;-1.932;2023-04-29T01:49:21;101262.55;;;9.89;100.00
49645;BME280;36494;50.730;-1.932;2023-04-29T01:51:46;101260.24;;;9.86;100.00
49645;BME280;36494;50.730;-1.932;2023-04-29T01:54:11;101261.47;;;9.83;100.00
49645;BME280;36494;50.730;-1.932;2023-04-29T01:56:36;101263.29;;;9.83;100.00
49645;BME280;36494;50.730;-1.932;2023-04-29T01:59:01;101264.74;;;9.78;100.00
49645;BME280;36494;50.730;-1.932;2023-04-29T02:01:27;101267.05;;;9.78;100.00
49645;BME280;36494;50.730;-1.932;2023-04-29T02:03:52;101272.22;;;9.77;100.00
49645;BME280;36494;50.730;-1.932;2023-04-29T02:06:18;101272.30;;;9.75;100.00
49645;BME280;36494;50.730;-1.932;2023-04-29T02:08:43;101267.66;;;9.71;100.00
49645;BME280;36494;50.730;-1.932;2023-04-29T02:11:08;101265.77;;;9.67;100.00
49645;BME280;36494;50.730;-1.932;2023-04-29T02:13:33;101263.19;;;9.67;100.00
49645;BME280;36494;50.730;-1.932;2023-04-29T02:16:07;101263.51;;;9.64;100.00
49645;BME280;36494;50.730;-1.932;2023-04-29T02:18:24;101265.39;;;9.60;100.00
49645;BME280;36494;50.730;-1.932;2023-04-29T02:20:49;101263.42;;;9.56;100.00
49645;BME280;36494;50.730;-1.932;2023-04-29T02:23:14;101262.38;;;9.54;100.00
49645;BME280;36494;50.730;-1.932;2023-04-29T02:25:39;101264.13;;;9.53;100.00
49645;BME280;36494;50.730;-1.932;2023-04-29T02:28:04;101261.56;;;9.50;100.00
49645;BME280;36494;50.730;-1.932;2023-04-29T02:30:30;101258.93;;;9.51;100.00
49645;BME280;36494;50.730;-1.932;2023-04-29T02:32:55;101265.02;;;9.50;100.00
49645;BME280;36494;50.730;-1.932;2023-04-29T02:35:20;101262.44;;;9.48;100.00
49645;BME280;36494;50.730;-1.932;2023-04-29T02:37:46;101266.86;;;9.46;100.00
49645;BME280;36494;50.730;-1.932;2023-04-29T02:40:12;101268.60;;;9.43;100.00
49645;BME280;36494;50.730;-1.932;2023-04-29T02:42:36;101273.87;;;9.41;100.00
49645;BME280;36494;50.730;-1.932;2023-04-29T02:45:02;101277.92;;;9.40;100.00
49645;BME280;36494;50.730;-1.932;2023-04-29T02:47:27;101280.66;;;9.37;100.00
49645;BME280;36494;50.730;-1.932;2023-04-29T02:49:53;101285.20;;;9.33;100.00
49645;BME280;36494;50.730;-1.932;2023-04-29T02:52:18;101288.08;;;9.31;100.00
49645;BME280;36494;50.730;-1.932;2023-04-29T02:54:44;101289.67;;;9.27;100.00
49645;BME280;36494;50.730;-1.932;2023-04-29T02:57:09;101292.81;;;9.24;100.00
49645;BME280;36494;50.730;-1.932;2023-04-29T02:59:34;101295.18;;;9.20;100.00
49645;BME280;36494;50.730;-1.932;2023-04-29T03:01:59;101301.26;;;9.16;100.00
49645;BME280;36494;50.730;-1.932;2023-04-29T03:04:24;101303.12;;;9.19;100.00
49645;BME280;36494;50.730;-1.932;2023-04-29T03:06:50;101304.56;;;9.24;100.00
49645;BME280;36494;50.730;-1.932;2023-04-29T03:09:15;101301.15;;;9.23;100.00
49645;BME280;36494;50.730;-1.932;2023-04-29T03:11:41;101300.47;;;9.21;100.00
49645;BME280;36494;50.730;-1.932;2023-04-29T03:14:07;101305.82;;;9.21;100.00
49645;BME280;36494;50.730;-1.932;2023-04-29T03:16:32;101307.55;;;9.22;100.00
49645;BME280;36494;50.730;-1.932;2023-04-29T03:18:57;101307.12;;;9.19;100.00
49645;BME280;36494;50.730;-1.932;2023-04-29T03:21:23;101307.95;;;9.17;100.00
49645;BME280;36494;50.730;-1.932;2023-04-29T03:23:48;101308.36;;;9.14;100.00
49645;BME280;36494;50.730;-1.932;2023-04-29T03:26:14;101314.92;;;9.11;100.00
49645;BME280;36494;50.730;-1.932;2023-04-29T03:28:39;101322.91;;;9.08;100.00
49645;BME280;36494;50.730;-1.932;2023-04-29T03:31:04;101323.57;;;9.06;100.00
49645;BME280;36494;50.730;-1.932;2023-04-29T03:33:29;101330.62;;;8.95;100.00
49645;BME280;36494;50.730;-1.932;2023-04-29T03:35:55;101332.71;;;9.00;100.00
49645;BME280;36494;50.730;-1.932;2023-04-29T03:38:20;101336.19;;;8.98;100.00
49645;BME280;36494;50.730;-1.932;2023-04-29T03:40:46;101339.74;;;8.93;100.00
49645;BME280;36494;50.730;-1.932;2023-04-29T03:43:11;101338.92;;;8.89;100.00
49645;BME280;36494;50.730;-1.932;2023-04-29T03:45:36;101342.68;;;8.84;100.00
49645;BME280;36494;50.730;-1.932;2023-04-29T03:48:01;101342.22;;;8.81;100.00
49645;BME280;36494;50.730;-1.932;2023-04-29T03:50:27;101343.48;;;8.82;100.00
49645;BME280;36494;50.730;-1.932;2023-04-29T03:52:52;101343.57;;;8.82;100.00
49645;BME280;36494;50.730;-1.932;2023-04-29T03:55:17;101349.22;;;8.79;100.00
49645;BME280;36494;50.730;-1.932;2023-04-29T03:57:43;101349.98;;;8.76;100.00
49645;BME280;36494;50.730;-1.932;2023-04-29T04:00:09;101347.56;;;8.73;100.00
49645;BME280;36494;50.730;-1.932;2023-04-29T04:02:33;101342.46;;;8.71;100.00
49645;BME280;36494;50.730;-1.932;2023-04-29T04:04:59;101343.07;;;8.69;100.00
49645;BME280;36494;50.730;-1.932;2023-04-29T04:07:24;101344.91;;;8.67;100.00
49645;BME280;36494;50.730;-1.932;2023-04-29T04:09:50;101348.28;;;8.63;100.00
49645;BME280;36494;50.730;-1.932;2023-04-29T04:12:15;101349.25;;;8.60;100.00
49645;BME280;36494;50.730;-1.932;2023-04-29T04:14:41;101347.24;;;8.57;100.00
49645;BME280;36494;50.730;-1.932;2023-04-29T04:17:06;101350.27;;;8.54;100.00
49645;BME280;36494;50.730;-1.932;2023-04-29T04:19:32;101353.81;;;8.52;100.00
49645;BME280;36494;50.730;-1.932;2023-04-29T04:21:57;101355.50;;;8.49;100.00
49645;BME280;36494;50.730;-1.932;2023-04-29T04:24:23;101354.96;;;8.47;100.00
49645;BME280;36494;50.730;-1.932;2023-04-29T04:26:48;101360.19;;;8.46;100.00
49645;BME280;36494;50.730;-1.932;2023-04-29T04:29:13;101361.76;;;8.45;100.00
49645;BME280;36494;50.730;-1.932;2023-04-29T04:31:39;101366.29;;;8.42;100.00
49645;BME280;36494;50.730;-1.932;2023-04-29T04:34:04;101369.32;;;8.39;100.00
49645;BME280;36494;50.730;-1.932;2023-04-29T04:36:29;101373.31;;;8.37;100.00
49645;BME280;36494;50.730;-1.932;2023-04-29T04:38:54;101374.95;;;8.35;100.00
49645;BME280;36494;50.730;-1.932;2023-04-29T04:41:20;101373.75;;;8.31;100.00
49645;BME280;36494;50.730;-1.932;2023-04-29T04:43:46;101374.82;;;8.28;100.00
49645;BME280;36494;50.730;-1.932;2023-04-29T04:46:11;101375.47;;;8.26;100.00
49645;BME280;36494;50.730;-1.932;2023-04-29T04:48:36;101381.04;;;8.24;100.00
49645;BME280;36494;50.730;-1.932;2023-04-29T04:51:06;101382.13;;;8.22;100.00
49645;BME280;36494;50.730;-1.932;2023-04-29T04:53:27;101383.22;;;8.19;100.00
49645;BME280;36494;50.730;-1.932;2023-04-29T04:55:53;101386.14;;;8.17;100.00
49645;BME280;36494;50.730;-1.932;2023-04-29T04:58:18;101386.91;;;8.15;100.00
49645;BME280;36494;50.730;-1.932;2023-04-29T05:00:44;101389.45;;;8.13;100.00
49645;BME280;36494;50.730;-1.932;2023-04-29T05:03:09;101392.14;;;8.12;100.00
49645;BME280;36494;50.730;-1.932;2023-04-29T05:05:34;101396.61;;;8.11;100.00
49645;BME280;36494;50.730;-1.932;2023-04-29T05:08:00;101398.15;;;8.11;100.00
49645;BME280;36494;50.730;-1.932;2023-04-29T05:10:25;101398.98;;;8.11;100.00
49645;BME280;36494;50.730;-1.932;2023-04-29T05:12:50;101402.80;;;8.12;100.00
49645;BME280;36494;50.730;-1.932;2023-04-29T05:15:16;101405.74;;;8.10;100.00
49645;BME280;36494;50.730;-1.932;2023-04-29T05:17:41;101409.01;;;8.11;100.00
49645;BME280;36494;50.730;-1.932;2023-04-29T05:20:07;101412.59;;;8.15;100.00
49645;BME280;36494;50.730;-1.932;2023-04-29T05:22:32;101414.96;;;8.13;100.00
49645;BME280;36494;50.730;-1.932;2023-04-29T05:24:58;101415.88;;;8.15;100.00
49645;BME280;36494;50.730;-1.932;2023-04-29T05:27:24;101420.93;;;8.16;100.00
49645;BME280;36494;50.730;-1.932;2023-04-29T05:29:49;101424.89;;;8.16;100.00
49645;BME280;36494;50.730;-1.932;2023-04-29T05:32:14;101423.77;;;8.19;100.00
49645;BME280;36494;50.730;-1.932;2023-04-29T05:34:40;101426.04;;;8.21;100.00
49645;BME280;36494;50.730;-1.932;2023-04-29T05:37:05;101422.98;;;8.20;100.00
49645;BME280;36494;50.730;-1.932;2023-04-29T05:39:31;101425.52;;;8.21;100.00
49645;BME280;36494;50.730;-1.932;2023-04-29T05:41:56;101431.84;;;8.22;100.00
49645;BME280;36494;50.730;-1.932;2023-04-29T05:44:22;101436.40;;;8.24;100.00
49645;BME280;36494;50.730;-1.932;2023-04-29T05:46:47;101437.01;;;8.28;100.00
49645;BME280;36494;50.730;-1.932;2023-04-29T05:49:13;101436.39;;;8.31;100.00
49645;BME280;36494;50.730;-1.932;2023-04-29T05:51:38;101438.09;;;8.33;100.00
49645;BME280;36494;50.730;-1.932;2023-04-29T05:54:04;101440.77;;;8.35;100.00
49645;BME280;36494;50.730;-1.932;2023-04-29T05:56:30;101443.08;;;8.40;100.00
49645;BME280;36494;50.730;-1.932;2023-04-29T05:58:54;101444.73;;;8.44;100.00
49645;BME280;36494;50.730;-1.932;2023-04-29T06:01:20;101443.31;;;8.47;100.00
49645;BME280;36494;50.730;-1.932;2023-04-29T06:03:47;101442.13;;;8.49;100.00
49645;BME280;36494;50.730;-1.932;2023-04-29T06:06:10;101440.89;;;8.53;100.00
49645;BME280;36494;50.730;-1.932;2023-04-29T06:08:44;101439.55;;;8.54;100.00
49645;BME280;36494;50.730;-1.932;2023-04-29T06:11:01;101441.74;;;8.56;100.00
49645;BME280;36494;50.730;-1.932;2023-04-29T06:13:27;101446.50;;;8.62;100.00
49645;BME280;36494;50.730;-1.932;2023-04-29T06:15:53;101448.06;;;8.66;100.00
49645;BME280;36494;50.730;-1.932;2023-04-29T06:18:18;101446.53;;;8.73;100.00
49645;BME280;36494;50.730;-1.932;2023-04-29T06:20:44;101446.95;;;8.80;100.00
49645;BME280;36494;50.730;-1.932;2023-04-29T06:23:09;101450.03;;;8.87;100.00
49645;BME280;36494;50.730;-1.932;2023-04-29T06:25:34;101454.52;;;8.96;100.00
49645;BME280;36494;50.730;-1.932;2023-04-29T06:28:00;101455.79;;;9.02;100.00
49645;BME280;36494;50.730;-1.932;2023-04-29T06:30:25;101461.20;;;9.08;100.00
49645;BME280;36494;50.730;-1.932;2023-04-29T06:32:51;101467.23;;;9.16;100.00
49645;BME280;36494;50.730;-1.932;2023-04-29T06:35:16;101471.56;;;9.25;100.00
49645;BME280;36494;50.730;-1.932;2023-04-29T06:37:42;101469.30;;;9.32;100.00
49645;BME280;36494;50.730;-1.932;2023-04-29T06:40:08;101469.03;;;9.41;100.00
49645;BME280;36494;50.730;-1.932;2023-04-29T06:42:32;101472.46;;;9.47;100.00
49645;BME280;36494;50.730;-1.932;2023-04-29T06:44:58;101473.44;;;9.55;100.00
49645;BME280;36494;50.730;-1.932;2023-04-29T06:47:23;101475.31;;;9.65;100.00
49645;BME280;36494;50.730;-1.932;2023-04-29T06:49:49;101479.70;;;9.74;100.00
49645;BME280;36494;50.730;-1.932;2023-04-29T06:52:14;101480.25;;;9.83;100.00
49645;BME280;36494;50.730;-1.932;2023-04-29T06:54:40;101480.84;;;9.91;100.00
49645;BME280;36494;50.730;-1.932;2023-04-29T06:57:05;101483.97;;;9.98;100.00
49645;BME280;36494;50.730;-1.932;2023-04-29T06:59:31;101485.67;;;10.07;100.00
49645;BME280;36494;50.730;-1.932;2023-04-29T07:01:56;101484.30;;;10.18;100.00
49645;BME280;36494;50.730;-1.932;2023-04-29T07:04:22;101486.41;;;10.28;100.00
49645;BME280;36494;50.730;-1.932;2023-04-29T07:06:47;101486.69;;;10.36;100.00
49645;BME280;36494;50.730;-1.932;2023-04-29T07:09:13;101487.49;;;10.43;100.00
49645;BME280;36494;50.730;-1.932;2023-04-29T07:11:39;101489.05;;;10.51;100.00
49645;BME280;36494;50.730;-1.932;2023-04-29T07:14:04;101492.28;;;10.58;100.00
49645;BME280;36494;50.730;-1.932;2023-04-29T07:16:29;101492.51;;;10.66;100.00
49645;BME280;36494;50.730;-1.932;2023-04-29T07:18:54;101496.56;;;10.73;100.00
49645;BME280;36494;50.730;-1.932;2023-04-29T07:21:19;101493.17;;;10.81;100.00
49645;BME280;36494;50.730;-1.932;2023-04-29T07:23:44;101492.63;;;10.87;100.00
49645;BME280;36494;50.730;-1.932;2023-04-29T07:26:10;101494.28;;;10.96;100.00
49645;BME280;36494;50.730;-1.932;2023-04-29T07:28:34;101496.31;;;11.05;100.00
49645;BME280;36494;50.730;-1.932;2023-04-29T07:31:00;101493.96;;;11.13;100.00
49645;BME280;36494;50.730;-1.932;2023-04-29T07:33:26;101492.00;;;11.22;100.00
49645;BME280;36494;50.730;-1.932;2023-04-29T07:35:51;101489.55;;;11.31;100.00
49645;BME280;36494;50.730;-1.932;2023-04-29T07:38:16;101495.39;;;11.39;100.00
49645;BME280;36494;50.730;-1.932;2023-04-29T07:40:41;101495.94;;;11.42;100.00
49645;BME280;36494;50.730;-1.932;2023-04-29T07:43:07;101499.22;;;11.49;100.00
49645;BME280;36494;50.730;-1.932;2023-04-29T07:45:32;101501.95;;;11.51;100.00
49645;BME280;36494;50.730;-1.932;2023-04-29T07:47:57;101503.76;;;11.59;100.00
49645;BME280;36494;50.730;-1.932;2023-04-29T07:50:23;101504.89;;;11.64;100.00
49645;BME280;36494;50.730;-1.932;2023-04-29T07:52:48;101503.96;;;11.57;100.00
49645;BME280;36494;50.730;-1.932;2023-04-29T07:55:13;101508.02;;;11.62;100.00
49645;BME280;36494;50.730;-1.932;2023-04-29T07:57:39;101511.56;;;11.79;100.00
49645;BME280;36494;50.730;-1.932;2023-04-29T08:00:05;101511.31;;;11.78;100.00
49645;BME280;36494;50.730;-1.932;2023-04-29T08:02:29;101516.98;;;11.95;100.00
49645;BME280;36494;50.730;-1.932;2023-04-29T08:04:55;101517.33;;;12.01;100.00
49645;BME280;36494;50.730;-1.932;2023-04-29T08:07:20;101519.92;;;11.98;100.00
49645;BME280;36494;50.730;-1.932;2023-04-29T08:09:46;101521.05;;;12.03;100.00
49645;BME280;36494;50.730;-1.932;2023-04-29T08:12:12;101519.39;;;11.91;100.00
49645;BME280;36494;50.730;-1.932;2023-04-29T08:14:37;101523.34;;;11.85;100.00
49645;BME280;36494;50.730;-1.932;2023-04-29T08:17:03;101528.41;;;11.98;100.00
49645;BME280;36494;50.730;-1.932;2023-04-29T08:19:28;101535.74;;;11.83;100.00
49645;BME280;36494;50.730;-1.932;2023-04-29T08:21:53;101537.98;;;11.78;100.00
49645;BME280;36494;50.730;-1.932;2023-04-29T08:24:18;101536.80;;;11.77;100.00
49645;BME280;36494;50.730;-1.932;2023-04-29T08:26:44;101537.39;;;11.83;100.00
49645;BME280;36494;50.730;-1.932;2023-04-29T08:29:09;101538.26;;;11.91;100.00
49645;BME280;36494;50.730;-1.932;2023-04-29T08:31:34;101541.21;;;11.93;100.00
49645;BME280;36494;50.730;-1.932;2023-04-29T08:34:00;101542.61;;;11.97;100.00
49645;BME280;36494;50.730;-1.932;2023-04-29T08:36:26;101548.11;;;12.03;100.00
49645;BME280;36494;50.730;-1.932;2023-04-29T08:38:51;101546.41;;;12.11;100.00
49645;BME280;36494;50.730;-1.932;2023-04-29T08:41:16;101547.06;;;12.11;100.00
49645;BME280;36494;50.730;-1.932;2023-04-29T08:43:42;101552.90;;;12.13;100.00
49645;BME280;36494;50.730;-1.932;2023-04-29T08:46:07;101558.25;;;12.20;100.00
49645;BME280;36494;50.730;-1.932;2023-04-29T08:48:33;101557.10;;;11.97;100.00
49645;BME280;36494;50.730;-1.932;2023-04-29T08:50:58;101556.25;;;12.14;100.00
49645;BME280;36494;50.730;-1.932;2023-04-29T08:53:23;101557.55;;;12.22;100.00
49645;BME280;36494;50.730;-1.932;2023-04-29T08:55:48;101558.74;;;12.31;100.00
49645;BME280;36494;50.730;-1.932;2023-04-29T08:58:15;101561.01;;;12.31;100.00
49645;BME280;36494;50.730;-1.932;2023-04-29T09:00:41;101562.21;;;12.26;100.00
49645;BME280;36494;50.730;-1.932;2023-04-29T09:03:11;101564.98;;;12.19;100.00
49645;BME280;36494;50.730;-1.932;2023-04-29T09:05:33;101567.96;;;12.23;100.00
49645;BME280;36494;50.730;-1.932;2023-04-29T09:07:56;101566.75;;;12.27;100.00
49645;BME280;36494;50.730;-1.932;2023-04-29T09:10:22;101566.61;;;12.51;100.00
49645;BME280;36494;50.730;-1.932;2023-04-29T09:12:47;101568.01;;;12.56;100.00
49645;BME280;36494;50.730;-1.932;2023-04-29T09:15:12;101573.73;;;12.46;100.00
49645;BME280;36494;50.730;-1.932;2023-04-29T09:17:40;101576.15;;;12.48;100.00
49645;BME280;36494;50.730;-1.932;2023-04-29T09:22:46;101577.12;;;12.49;100.00
49645;BME280;36494;50.730;-1.932;2023-04-29T09:27:25;101582.14;;;12.37;100.00
49645;BME280;36494;50.730;-1.932;2023-04-29T09:32:18;101586.35;;;12.31;100.00
49645;BME280;36494;50.730;-1.932;2023-04-29T09:34:36;101585.48;;;12.41;100.00
49645;BME280;36494;50.730;-1.932;2023-04-29T09:37:01;101585.93;;;12.44;100.00
49645;BME280;36494;50.730;-1.932;2023-04-29T09:39:36;101585.12;;;12.60;100.00
49645;BME280;36494;50.730;-1.932;2023-04-29T09:41:59;101586.36;;;12.69;100.00
49645;BME280;36494;50.730;-1.932;2023-04-29T09:44:18;101588.03;;;12.83;100.00
49645;BME280;36494;50.730;-1.932;2023-04-29T09:46:43;101587.57;;;12.83;100.00
49645;BME280;36494;50.730;-1.932;2023-04-29T09:49:22;101588.86;;;12.90;100.00
49645;BME280;36494;50.730;-1.932;2023-04-29T09:51:43;101590.97;;;12.96;100.00
49645;BME280;36494;50.730;-1.932;2023-04-29T09:54:00;101591.97;;;12.90;100.00
49645;BME280;36494;50.730;-1.932;2023-04-29T09:56:25;101594.54;;;12.61;100.00
49645;BME280;36494;50.730;-1.932;2023-04-29T09:58:51;101595.09;;;12.82;100.00
49645;BME280;36494;50.730;-1.932;2023-04-29T10:01:17;101596.02;;;12.81;100.00
49645;BME280;36494;50.730;-1.932;2023-04-29T10:03:42;101592.95;;;12.86;100.00
49645;BME280;36494;50.730;-1.932;2023-04-29T10:06:08;101590.37;;;12.78;100.00
49645;BME280;36494;50.730;-1.932;2023-04-29T10:08:34;101593.44;;;12.89;100.00
49645;BME280;36494;50.730;-1.932;2023-04-29T10:11:00;101591.59;;;13.03;100.00
49645;BME280;36494;50.730;-1.932;2023-04-29T10:13:25;101592.61;;;13.05;100.00
49645;BME280;36494;50.730;-1.932;2023-04-29T10:15:56;101591.28;;;13.18;100.00
49645;BME280;36494;50.730;-1.932;2023-04-29T10:18:19;101594.07;;;13.03;100.00
49645;BME280;36494;50.730;-1.932;2023-04-29T10:20:45;101598.83;;;13.21;100.00
49645;BME280;36494;50.730;-1.932;2023-04-29T10:23:06;101600.62;;;13.17;100.00
49645;BME280;36494;50.730;-1.932;2023-04-29T10:25:32;101603.70;;;13.22;100.00
49645;BME280;36494;50.730;-1.932;2023-04-29T10:27:59;101602.53;;;13.49;100.00
49645;BME280;36494;50.730;-1.932;2023-04-29T10:30:22;101600.95;;;13.34;100.00
49645;BME280;36494;50.730;-1.932;2023-04-29T10:32:48;101601.51;;;13.48;100.00
49645;BME280;36494;50.730;-1.932;2023-04-29T10:35:14;101602.26;;;13.50;100.00
49645;BME280;36494;50.730;-1.932;2023-04-29T10:37:37;101604.02;;;13.47;100.00
49645;BME280;36494;50.730;-1.932;2023-04-29T10:40:10;101602.95;;;13.44;100.00
49645;BME280;36494;50.730;-1.932;2023-04-29T10:42:35;101605.23;;;13.27;100.00
49645;BME280;36494;50.730;-1.932;2023-04-29T10:47:19;101607.17;;;13.24;100.00
49645;BME280;36494;50.730;-1.932;2023-04-29T10:52:15;101609.97;;;13.35;100.00
49645;BME280;36494;50.730;-1.932;2023-04-29T10:54:38;101610.52;;;13.42;100.00
49645;BME280;36494;50.730;-1.932;2023-04-29T10:57:02;101608.90;;;13.53;100.00
49645;BME280;36494;50.730;-1.932;2023-04-29T11:01:53;101608.05;;;13.54;100.00
49645;BME280;36494;50.730;-1.932;2023-04-29T11:04:19;101611.78;;;13.58;100.00
49645;BME280;36494;50.730;-1.932;2023-04-29T11:06:45;101612.68;;;13.74;100.00
49645;BME280;36494;50.730;-1.932;2023-04-29T11:09:10;101607.65;;;13.90;100.00
49645;BME280;36494;50.730;-1.932;2023-04-29T11:11:43;101606.83;;;13.84;100.00
49645;BME280;36494;50.730;-1.932;2023-04-29T11:13:58;101605.19;;;13.91;100.00
49645;BME280;36494;50.730;-1.932;2023-04-29T11:16:25;101605.27;;;14.18;100.00
49645;BME280;36494;50.730;-1.932;2023-04-29T11:19:03;101605.23;;;14.14;100.00
49645;BME280;36494;50.730;-1.932;2023-04-29T11:21:15;101603.15;;;14.14;100.00
49645;BME280;36494;50.730;-1.932;2023-04-29T11:23:40;101599.52;;;13.88;100.00
49645;BME280;36494;50.730;-1.932;2023-04-29T11:26:06;101600.46;;;14.01;100.00
49645;BME280;36494;50.730;-1.932;2023-04-29T11:28:32;101595.63;;;14.21;100.00
49645;BME280;36494;50.730;-1.932;2023-04-29T11:30:57;101595.96;;;14.24;100.00
49645;BME280;36494;50.730;-1.932;2023-04-29T11:33:22;101600.52;;;14.41;100.00
49645;BME280;36494;50.730;-1.932;2023-04-29T11:35:47;101596.68;;;14.29;100.00
49645;BME280;36494;50.730;-1.932;2023-04-29T11:38:12;101597.89;;;14.60;100.00
49645;BME280;36494;50.730;-1.932;2023-04-29T11:40:41;101595.23;;;14.30;100.00
49645;BME280;36494;50.730;-1.932;2023-04-29T11:43:05;101598.49;;;13.94;100.00
49645;BME280;36494;50.730;-1.932;2023-04-29T11:45:28;101597.29;;;14.20;100.00
49645;BME280;36494;50.730;-1.932;2023-04-29T11:47:54;101595.84;;;14.23;100.00
49645;BME280;36494;50.730;-1.932;2023-04-29T11:50:19;101595.95;;;14.25;100.00
49645;BME280;36494;50.730;-1.932;2023-04-29T11:52:45;101591.96;;;14.84;100.00
49645;BME280;36494;50.730;-1.932;2023-04-29T11:55:11;101598.55;;;14.50;100.00
49645;BME280;36494;50.730;-1.932;2023-04-29T11:57:36;101597.11;;;14.53;100.00
49645;BME280;36494;50.730;-1.932;2023-04-29T12:00:02;101597.73;;;14.90;100.00
49645;BME280;36494;50.730;-1.932;2023-04-29T12:02:28;101593.90;;;14.11;100.00
49645;BME280;36494;50.730;-1.932;2023-04-29T12:04:52;101593.75;;;14.24;100.00
49645;BME280;36494;50.730;-1.932;2023-04-29T12:07:17;101591.43;;;13.92;100.00
49645;BME280;36494;50.730;-1.932;2023-04-29T12:09:43;101587.70;;;13.83;100.00
49645;BME280;36494;50.730;-1.932;2023-04-29T12:12:08;101585.12;;;14.26;100.00
49645;BME280;36494;50.730;-1.932;2023-04-29T12:14:33;101588.10;;;14.63;100.00
49645;BME280;36494;50.730;-1.932;2023-04-29T12:16:58;101590.39;;;14.60;100.00
49645;BME280;36494;50.730;-1.932;2023-04-29T12:19:24;101592.05;;;14.45;100.00
49645;BME280;36494;50.730;-1.932;2023-04-29T12:21:49;101592.15;;;14.48;100.00
49645;BME280;36494;50.730;-1.932;2023-04-29T12:24:14;101590.92;;;14.46;100.00
49645;BME280;36494;50.730;-1.932;2023-04-29T12:26:39;101588.97;;;13.80;100.00
49645;BME280;36494;50.730;-1.932;2023-04-29T12:29:05;101583.91;;;13.89;100.00
49645;BME280;36494;50.730;-1.932;2023-04-29T12:31:32;101584.89;;;14.20;100.00
49645;BME280;36494;50.730;-1.932;2023-04-29T12:33:56;101589.24;;;14.16;100.00
49645;BME280;36494;50.730;-1.932;2023-04-29T12:36:22;101590.81;;;14.27;100.00
49645;BME280;36494;50.730;-1.932;2023-04-29T12:38:48;101588.36;;;14.88;100.00